sensor_id;sensor_type;location;lat;lon;timestamp;pressure;altitude;pressure_sealevel;temperature;humidity
48027;BME280;50714;49.208;5.364;2023-05-03T00:06:14;100337.72;;;10.17;60.48
48027;BME280;50714;49.208;5.364;2023-05-03T00:16:15;100339.59;;;10.16;59.97
48027;BME280;50714;49.208;5.364;2023-05-03T00:26:15;100337.47;;;10.12;59.29
48027;BME280;50714;49.208;5.364;2023-05-03T00:36:15;100334.75;;;10.12;59.10
48027;BME280;50714;49.208;5.364;2023-05-03T00:46:16;100329.72;;;10.09;58.86
48027;BME280;50714;49.208;5.364;2023-05-03T00:56:18;100321.09;;;9.90;59.32
48027;BME280;50714;49.208;5.364;2023-05-03T01:06:37;100317.44;;;9.83;60.03
48027;BME280;50714;49.208;5.364;2023-05-03T01:16:45;100298.41;;;9.77;59.52
48027;BME280;50714;49.208;5.364;2023-05-03T01:26:48;100297.53;;;9.62;59.73
48027;BME280;50714;49.208;5.364;2023-05-03T01:36:49;100290.81;;;9.57;59.71
48027;BME280;50714;49.208;5.364;2023-05-03T01:46:52;100292.88;;;9.47;59.81
48027;BME280;50714;49.208;5.364;2023-05-03T01:56:54;100289.59;;;9.29;60.26
48027;BME280;50714;49.208;5.364;2023-05-03T02:06:54;100282.63;;;9.12;60.51
48027;BME280;50714;49.208;5.364;2023-05-03T02:16:55;100285.00;;;8.99;61.54
48027;BME280;50714;49.208;5.364;2023-05-03T02:26:55;100284.16;;;9.06;60.52
48027;BME280;50714;49.208;5.364;2023-05-03T02:36:56;100278.00;;;8.89;61.25
48027;BME280;50714;49.208;5.364;2023-05-03T02:46:56;100285.47;;;8.63;62.07
48027;BME280;50714;49.208;5.364;2023-05-03T02:56:56;100288.66;;;8.59;62.36
48027;BME280;50714;49.208;5.364;2023-05-03T03:06:57;100286.81;;;8.59;62.01
48027;BME280;50714;49.208;5.364;2023-05-03T03:17:00;100281.75;;;8.64;62.57
48027;BME280;50714;49.208;5.364;2023-05-03T03:27:01;100265.28;;;8.51;62.02
48027;BME280;50714;49.208;5.364;2023-05-03T03:37:02;100246.84;;;8.40;62.34
48027;BME280;50714;49.208;5.364;2023-05-03T03:47:03;100243.63;;;8.28;63.45
48027;BME280;50714;49.208;5.364;2023-05-03T03:57:03;100230.00;;;8.30;62.23
48027;BME280;50714;49.208;5.364;2023-05-03T04:07:04;100234.22;;;8.40;62.10
48027;BME280;50714;49.208;5.364;2023-05-03T04:17:04;100240.91;;;8.52;61.88
48027;BME280;50714;49.208;5.364;2023-05-03T04:27:05;100230.31;;;8.59;61.98
48027;BME280;50714;49.208;5.364;2023-05-03T04:37:05;100229.97;;;8.62;62.00
48027;BME280;50714;49.208;5.364;2023-05-03T04:47:07;100242.41;;;8.63;61.96
48027;BME280;50714;49.208;5.364;2023-05-03T04:57:08;100246.59;;;8.74;62.14
48027;BME280;50714;49.208;5.364;2023-05-03T05:07:09;100270.44;;;8.85;61.79
48027;BME280;50714;49.208;5.364;2023-05-03T05:17:09;100294.47;;;8.86;62.17
48027;BME280;50714;49.208;5.364;2023-05-03T05:27:10;100307.03;;;9.10;61.70
48027;BME280;50714;49.208;5.364;2023-05-03T05:37:10;100318.63;;;9.19;61.44
48027;BME280;50714;49.208;5.364;2023-05-03T05:47:11;100328.38;;;9.51;61.56
48027;BME280;50714;49.208;5.364;2023-05-03T05:57:11;100323.13;;;9.88;61.37
48027;BME280;50714;49.208;5.364;2023-05-03T06:07:13;100323.34;;;10.47;60.50
48027;BME280;50714;49.208;5.364;2023-05-03T06:17:14;100324.34;;;11.13;59.30
48027;BME280;50714;49.208;5.364;2023-05-03T06:27:14;100331.50;;;11.80;58.10
48027;BME280;50714;49.208;5.364;2023-05-03T06:37:15;100328.72;;;12.37;56.07
48027;BME280;50714;49.208;5.364;2023-05-03T06:47:16;100330.50;;;12.73;55.98
48027;BME280;50714;49.208;5.364;2023-05-03T06:57:19;100330.44;;;13.01;55.23
48027;BME280;50714;49.208;5.364;2023-05-03T07:07:20;100325.09;;;13.42;53.78
48027;BME280;50714;49.208;5.364;2023-05-03T07:17:20;100310.28;;;14.12;54.47
48027;BME280;50714;49.208;5.364;2023-05-03T07:27:22;100297.38;;;14.73;52.83
48027;BME280;50714;49.208;5.364;2023-05-03T07:37:22;100303.75;;;15.18;52.27
48027;BME280;50714;49.208;5.364;2023-05-03T07:47:24;100294.03;;;15.49;51.39
48027;BME280;50714;49.208;5.364;2023-05-03T07:57:25;100277.31;;;15.90;50.73
48027;BME280;50714;49.208;5.364;2023-05-03T08:07:25;100270.63;;;16.92;50.39
48027;BME280;50714;49.208;5.364;2023-05-03T08:17:27;100261.16;;;17.79;48.91
48027;BME280;50714;49.208;5.364;2023-05-03T08:27:27;100268.69;;;19.30;47.38
48027;BME280;50714;49.208;5.364;2023-05-03T08:37:27;100258.94;;;21.69;46.29
48027;BME280;50714;49.208;5.364;2023-05-03T08:47:28;100240.09;;;24.13;42.13
48027;BME280;50714;49.208;5.364;2023-05-03T08:57:33;100238.81;;;26.40;37.76
48027;BME280;50714;49.208;5.364;2023-05-03T09:07:34;100229.25;;;26.56;37.98
48027;BME280;50714;49.208;5.364;2023-05-03T09:17:35;100205.72;;;27.73;35.19
48027;BME280;50714;49.208;5.364;2023-05-03T09:27:35;100208.72;;;29.06;33.90
48027;BME280;50714;49.208;5.364;2023-05-03T09:37:36;100204.41;;;28.87;32.71
48027;BME280;50714;49.208;5.364;2023-05-03T09:47:48;100212.25;;;29.26;28.38
48027;BME280;50714;49.208;5.364;2023-05-03T09:57:51;100208.44;;;29.49;32.26
48027;BME280;50714;49.208;5.364;2023-05-03T10:07:55;100208.44;;;29.22;32.36
48027;BME280;50714;49.208;5.364;2023-05-03T10:17:58;100218.69;;;29.76;30.30
48027;BME280;50714;49.208;5.364;2023-05-03T10:28:02;100215.13;;;29.98;30.56
48027;BME280;50714;49.208;5.364;2023-05-03T10:38:12;100205.06;;;30.33;27.31
48027;BME280;50714;49.208;5.364;2023-05-03T10:58:15;100177.75;;;31.53;28.87
48027;BME280;50714;49.208;5.364;2023-05-03T11:08:18;100181.88;;;31.73;28.67
48027;BME280;50714;49.208;5.364;2023-05-03T11:18:19;100172.53;;;31.95;28.06
48027;BME280;50714;49.208;5.364;2023-05-03T11:28:19;100148.31;;;32.51;26.59
48027;BME280;50714;49.208;5.364;2023-05-03T11:38:20;100136.72;;;32.06;26.03
48027;BME280;50714;49.208;5.364;2023-05-03T11:48:20;100133.28;;;31.74;25.61
48027;BME280;50714;49.208;5.364;2023-05-03T11:58:24;100124.94;;;29.63;23.74
48027;BME280;50714;49.208;5.364;2023-05-03T12:08:29;100107.53;;;27.36;28.12
48027;BME280;50714;49.208;5.364;2023-05-03T12:18:50;100093.19;;;25.81;28.99
48027;BME280;50714;49.208;5.364;2023-05-03T12:28:51;100085.38;;;24.40;30.50
48027;BME280;50714;49.208;5.364;2023-05-03T12:38:51;100065.53;;;23.37;31.47
48027;BME280;50714;49.208;5.364;2023-05-03T12:48:52;100060.44;;;22.26;31.51
48027;BME280;50714;49.208;5.364;2023-05-03T12:58:52;100047.66;;;21.67;32.97
48027;BME280;50714;49.208;5.364;2023-05-03T13:08:54;100030.78;;;21.54;34.30
48027;BME280;50714;49.208;5.364;2023-05-03T13:18:55;100018.75;;;21.01;34.25
48027;BME280;50714;49.208;5.364;2023-05-03T13:28:55;100010.28;;;20.81;34.67
48027;BME280;50714;49.208;5.364;2023-05-03T13:38:56;99990.63;;;20.89;35.35
48027;BME280;50714;49.208;5.364;2023-05-03T13:48:57;99982.56;;;20.77;35.35
48027;BME280;50714;49.208;5.364;2023-05-03T13:58:57;99975.59;;;20.69;35.71
48027;BME280;50714;49.208;5.364;2023-05-03T14:08:58;99962.50;;;20.28;35.54
48027;BME280;50714;49.208;5.364;2023-05-03T14:19:00;99938.34;;;20.47;36.07
48027;BME280;50714;49.208;5.364;2023-05-03T14:29:00;99925.72;;;20.46;36.08
48027;BME280;50714;49.208;5.364;2023-05-03T14:39:02;99923.63;;;20.36;35.41
48027;BME280;50714;49.208;5.364;2023-05-03T14:49:03;99921.75;;;19.93;35.54
48027;BME280;50714;49.208;5.364;2023-05-03T14:59:03;99902.31;;;19.94;35.69
48027;BME280;50714;49.208;5.364;2023-05-03T15:09:04;99892.00;;;20.01;35.14
48027;BME280;50714;49.208;5.364;2023-05-03T15:19:05;99898.34;;;19.85;35.17
48027;BME280;50714;49.208;5.364;2023-05-03T15:29:06;99889.38;;;19.68;34.74
48027;BME280;50714;49.208;5.364;2023-05-03T15:39:06;99893.78;;;19.69;35.33
48027;BME280;50714;49.208;5.364;2023-05-03T15:49:08;99902.94;;;19.58;34.44
48027;BME280;50714;49.208;5.364;2023-05-03T15:59:08;99892.31;;;19.45;34.27
48027;BME280;50714;49.208;5.364;2023-05-03T16:09:13;99884.34;;;19.43;34.59
48027;BME280;50714;49.208;5.364;2023-05-03T16:19:15;99885.66;;;19.40;34.77
48027;BME280;50714;49.208;5.364;2023-05-03T16:29:16;99889.00;;;19.42;35.17
48027;BME280;50714;49.208;5.364;2023-05-03T16:39:16;99887.81;;;19.38;34.95
48027;BME280;50714;49.208;5.364;2023-05-03T16:49:17;99873.09;;;19.23;34.22
48027;BME280;50714;49.208;5.364;2023-05-03T16:59:17;99866.13;;;19.15;34.28
48027;BME280;50714;49.208;5.364;2023-05-03T17:09:18;99855.78;;;19.00;34.12
48027;BME280;50714;49.208;5.364;2023-05-03T17:19:18;99850.66;;;19.04;35.10
48027;BME280;50714;49.208;5.364;2023-05-03T17:29:19;99856.03;;;18.99;35.36
48027;BME280;50714;49.208;5.364;2023-05-03T17:39:19;99856.38;;;18.86;34.71
48027;BME280;50714;49.208;5.364;2023-05-03T17:49:20;99852.06;;;18.73;34.55
48027;BME280;50714;49.208;5.364;2023-05-03T17:59:20;99843.94;;;18.61;35.09
48027;BME280;50714;49.208;5.364;2023-05-03T18:09:21;99843.38;;;18.48;34.62
48027;BME280;50714;49.208;5.364;2023-05-03T18:19:21;99837.91;;;18.31;35.88
48027;BME280;50714;49.208;5.364;2023-05-03T18:29:22;99841.31;;;18.10;36.03
48027;BME280;50714;49.208;5.364;2023-05-03T18:39:23;99847.94;;;17.85;35.90
48027;BME280;50714;49.208;5.364;2023-05-03T18:49:23;99842.06;;;17.65;36.75
48027;BME280;50714;49.208;5.364;2023-05-03T18:59:24;99851.56;;;17.39;37.17
48027;BME280;50714;49.208;5.364;2023-05-03T19:09:24;99850.16;;;17.13;37.63
48027;BME280;50714;49.208;5.364;2023-05-03T19:19:24;99853.13;;;16.88;38.07
48027;BME280;50714;49.208;5.364;2023-05-03T19:29:25;99853.44;;;16.68;38.62
48027;BME280;50714;49.208;5.364;2023-05-03T19:39:26;99867.81;;;16.46;38.62
48027;BME280;50714;49.208;5.364;2023-05-03T19:49:26;99865.03;;;16.34;39.14
48027;BME280;50714;49.208;5.364;2023-05-03T19:59:27;99858.97;;;16.20;40.04
48027;BME280;50714;49.208;5.364;2023-05-03T20:09:28;99859.88;;;16.14;40.22
48027;BME280;50714;49.208;5.364;2023-05-03T20:19:28;99861.28;;;16.05;40.58
48027;BME280;50714;49.208;5.364;2023-05-03T20:29:29;99847.69;;;15.87;40.66
48027;BME280;50714;49.208;5.364;2023-05-03T20:39:29;99858.38;;;15.70;41.14
48027;BME280;50714;49.208;5.364;2023-05-03T20:49:29;99853.38;;;15.67;41.10
48027;BME280;50714;49.208;5.364;2023-05-03T20:59:30;99852.25;;;15.56;41.47
48027;BME280;50714;49.208;5.364;2023-05-03T21:09:30;99860.31;;;15.45;41.65
48027;BME280;50714;49.208;5.364;2023-05-03T21:19:31;99859.59;;;15.13;42.36
48027;BME280;50714;49.208;5.364;2023-05-03T21:29:31;99848.38;;;14.59;44.46
48027;BME280;50714;49.208;5.364;2023-05-03T21:39:31;99834.16;;;14.26;45.00
48027;BME280;50714;49.208;5.364;2023-05-03T21:49:31;99826.50;;;14.16;44.48
48027;BME280;50714;49.208;5.364;2023-05-03T21:59:32;99816.78;;;13.95;45.91
48027;BME280;50714;49.208;5.364;2023-05-03T22:09:32;99813.72;;;13.85;45.97
48027;BME280;50714;49.208;5.364;2023-05-03T22:19:36;99816.69;;;13.77;45.92
48027;BME280;50714;49.208;5.364;2023-05-03T22:29:39;99801.31;;;13.64;46.13
48027;BME280;50714;49.208;5.364;2023-05-03T22:39:40;99796.50;;;13.67;46.24
48027;BME280;50714;49.208;5.364;2023-05-03T22:49:40;99775.91;;;13.52;46.72
48027;BME280;50714;49.208;5.364;2023-05-03T22:59:43;99774.44;;;13.50;47.81
48027;BME280;50714;49.208;5.364;2023-05-03T23:09:47;99771.38;;;13.40;48.42
48027;BME280;50714;49.208;5.364;2023-05-03T23:19:47;99771.19;;;13.35;47.92
48027;BME280;50714;49.208;5.364;2023-05-03T23:29:49;99774.53;;;13.37;48.66
48027;BME280;50714;49.208;5.364;2023-05-03T23:39:49;99764.72;;;13.36;48.27
48027;BME280;50714;49.208;5.364;2023-05-03T23:49:50;99764.53;;;13.30;49.16
48027;BME280;50714;49.208;5.364;2023-05-03T23:59:50;99743.31;;;13.14;49.29
